sensor_id;sensor_type;location;lat;lon;timestamp;P1;durP1;ratioP1;P2;durP2;ratioP2
57899;SDS011;60605;53.716;19.940;2023-08-07T00:01:15;2.20;;;1.50;;
57899;SDS011;60605;53.716;19.940;2023-08-07T00:06:18;1.40;;;1.30;;
57899;SDS011;60605;53.716;19.940;2023-08-07T00:11:21;1.30;;;1.20;;
57899;SDS011;60605;53.716;19.940;2023-08-07T00:16:25;4.40;;;1.40;;
57899;SDS011;60605;53.716;19.940;2023-08-07T00:21:28;1.30;;;1.30;;
57899;SDS011;60605;53.716;19.940;2023-08-07T00:26:31;1.20;;;1.10;;
57899;SDS011;60605;53.716;19.940;2023-08-07T00:31:36;1.00;;;1.00;;
57899;SDS011;60605;53.716;19.940;2023-08-07T00:36:39;2.00;;;1.00;;
57899;SDS011;60605;53.716;19.940;2023-08-07T00:41:43;1.60;;;0.90;;
57899;SDS011;60605;53.716;19.940;2023-08-07T00:46:46;1.00;;;1.00;;
57899;SDS011;60605;53.716;19.940;2023-08-07T00:51:50;3.60;;;1.10;;
57899;SDS011;60605;53.716;19.940;2023-08-07T00:56:53;1.10;;;0.90;;
57899;SDS011;60605;53.716;19.940;2023-08-07T01:01:57;2.20;;;0.90;;
57899;SDS011;60605;53.716;19.940;2023-08-07T01:07:00;0.80;;;0.70;;
57899;SDS011;60605;53.716;19.940;2023-08-07T01:17:14;0.60;;;0.60;;
57899;SDS011;60605;53.716;19.940;2023-08-07T01:22:19;0.80;;;0.80;;
57899;SDS011;60605;53.716;19.940;2023-08-07T01:38:02;1.40;;;1.30;;
57899;SDS011;60605;53.716;19.940;2023-08-07T01:43:08;1.90;;;1.00;;
57899;SDS011;60605;53.716;19.940;2023-08-07T01:48:12;2.10;;;1.30;;
57899;SDS011;60605;53.716;19.940;2023-08-07T01:53:15;1.40;;;1.20;;
57899;SDS011;60605;53.716;19.940;2023-08-07T01:58:18;1.30;;;1.30;;
57899;SDS011;60605;53.716;19.940;2023-08-07T02:03:21;1.20;;;1.20;;
57899;SDS011;60605;53.716;19.940;2023-08-07T02:08:25;1.90;;;1.10;;
57899;SDS011;60605;53.716;19.940;2023-08-07T02:13:28;1.60;;;0.80;;
57899;SDS011;60605;53.716;19.940;2023-08-07T02:18:31;1.20;;;1.20;;
57899;SDS011;60605;53.716;19.940;2023-08-07T02:23:35;2.70;;;1.00;;
57899;SDS011;60605;53.716;19.940;2023-08-07T02:28:39;1.20;;;1.20;;
57899;SDS011;60605;53.716;19.940;2023-08-07T02:33:42;2.00;;;1.20;;
57899;SDS011;60605;53.716;19.940;2023-08-07T02:38:45;1.30;;;1.30;;
57899;SDS011;60605;53.716;19.940;2023-08-07T02:43:49;1.50;;;1.40;;
57899;SDS011;60605;53.716;19.940;2023-08-07T02:48:52;1.30;;;1.30;;
57899;SDS011;60605;53.716;19.940;2023-08-07T02:53:56;1.50;;;1.50;;
57899;SDS011;60605;53.716;19.940;2023-08-07T02:58:59;1.50;;;1.40;;
57899;SDS011;60605;53.716;19.940;2023-08-07T03:04:04;1.40;;;1.30;;
57899;SDS011;60605;53.716;19.940;2023-08-07T03:09:07;2.10;;;1.40;;
57899;SDS011;60605;53.716;19.940;2023-08-07T03:14:11;1.60;;;1.50;;
57899;SDS011;60605;53.716;19.940;2023-08-07T03:19:14;2.50;;;1.60;;
57899;SDS011;60605;53.716;19.940;2023-08-07T03:24:17;4.50;;;1.70;;
57899;SDS011;60605;53.716;19.940;2023-08-07T03:29:21;1.80;;;1.70;;
57899;SDS011;60605;53.716;19.940;2023-08-07T03:34:24;3.30;;;1.80;;
57899;SDS011;60605;53.716;19.940;2023-08-07T03:39:27;2.10;;;1.90;;
57899;SDS011;60605;53.716;19.940;2023-08-07T03:44:31;1.70;;;1.60;;
57899;SDS011;60605;53.716;19.940;2023-08-07T03:49:37;1.80;;;1.70;;
57899;SDS011;60605;53.716;19.940;2023-08-07T03:54:41;2.10;;;2.00;;
57899;SDS011;60605;53.716;19.940;2023-08-07T04:09:50;2.40;;;2.30;;
57899;SDS011;60605;53.716;19.940;2023-08-07T04:14:53;2.70;;;2.00;;
57899;SDS011;60605;53.716;19.940;2023-08-07T04:19:57;2.30;;;2.00;;
57899;SDS011;60605;53.716;19.940;2023-08-07T04:25:00;2.00;;;1.90;;
57899;SDS011;60605;53.716;19.940;2023-08-07T04:30:06;1.80;;;1.70;;
57899;SDS011;60605;53.716;19.940;2023-08-07T04:35:09;2.10;;;2.00;;
57899;SDS011;60605;53.716;19.940;2023-08-07T04:40:13;1.90;;;1.80;;
57899;SDS011;60605;53.716;19.940;2023-08-07T04:45:17;3.70;;;2.00;;
57899;SDS011;60605;53.716;19.940;2023-08-07T04:50:20;1.80;;;1.70;;
57899;SDS011;60605;53.716;19.940;2023-08-07T04:55:25;2.40;;;1.80;;
57899;SDS011;60605;53.716;19.940;2023-08-07T05:00:28;2.10;;;2.00;;
57899;SDS011;60605;53.716;19.940;2023-08-07T05:05:32;5.60;;;2.20;;
57899;SDS011;60605;53.716;19.940;2023-08-07T05:10:36;1.80;;;1.70;;
57899;SDS011;60605;53.716;19.940;2023-08-07T05:15:39;2.10;;;1.70;;
57899;SDS011;60605;53.716;19.940;2023-08-07T05:20:47;1.70;;;1.60;;
57899;SDS011;60605;53.716;19.940;2023-08-07T05:25:51;2.40;;;1.70;;
57899;SDS011;60605;53.716;19.940;2023-08-07T05:30:54;2.40;;;1.80;;
57899;SDS011;60605;53.716;19.940;2023-08-07T05:35:58;1.50;;;1.50;;
57899;SDS011;60605;53.716;19.940;2023-08-07T05:41:02;1.70;;;1.60;;
57899;SDS011;60605;53.716;19.940;2023-08-07T05:46:05;1.70;;;1.60;;
57899;SDS011;60605;53.716;19.940;2023-08-07T05:51:09;1.90;;;1.60;;
57899;SDS011;60605;53.716;19.940;2023-08-07T05:56:12;3.20;;;1.90;;
57899;SDS011;60605;53.716;19.940;2023-08-07T06:01:16;1.30;;;1.30;;
57899;SDS011;60605;53.716;19.940;2023-08-07T06:06:20;1.50;;;1.40;;
57899;SDS011;60605;53.716;19.940;2023-08-07T06:11:24;1.50;;;1.50;;
57899;SDS011;60605;53.716;19.940;2023-08-07T06:16:27;2.20;;;1.40;;
57899;SDS011;60605;53.716;19.940;2023-08-07T06:21:31;2.30;;;1.40;;
57899;SDS011;60605;53.716;19.940;2023-08-07T06:26:34;1.50;;;1.40;;
57899;SDS011;60605;53.716;19.940;2023-08-07T06:31:37;1.40;;;1.40;;
57899;SDS011;60605;53.716;19.940;2023-08-07T06:36:41;1.30;;;1.30;;
57899;SDS011;60605;53.716;19.940;2023-08-07T06:41:45;2.80;;;1.30;;
57899;SDS011;60605;53.716;19.940;2023-08-07T06:46:48;1.30;;;1.30;;
57899;SDS011;60605;53.716;19.940;2023-08-07T06:51:52;1.20;;;1.20;;
57899;SDS011;60605;53.716;19.940;2023-08-07T06:56:55;1.70;;;1.40;;
57899;SDS011;60605;53.716;19.940;2023-08-07T07:01:59;1.40;;;1.40;;
57899;SDS011;60605;53.716;19.940;2023-08-07T07:07:02;1.20;;;1.20;;
57899;SDS011;60605;53.716;19.940;2023-08-07T07:12:06;1.50;;;1.40;;
57899;SDS011;60605;53.716;19.940;2023-08-07T07:17:10;1.40;;;1.30;;
57899;SDS011;60605;53.716;19.940;2023-08-07T07:22:14;1.20;;;1.20;;
57899;SDS011;60605;53.716;19.940;2023-08-07T07:27:17;1.20;;;1.20;;
57899;SDS011;60605;53.716;19.940;2023-08-07T07:32:24;1.20;;;1.20;;
57899;SDS011;60605;53.716;19.940;2023-08-07T07:37:29;1.50;;;1.30;;
57899;SDS011;60605;53.716;19.940;2023-08-07T07:42:34;1.30;;;1.20;;
57899;SDS011;60605;53.716;19.940;2023-08-07T07:47:38;1.00;;;1.00;;
57899;SDS011;60605;53.716;19.940;2023-08-07T07:52:41;1.00;;;1.00;;
57899;SDS011;60605;53.716;19.940;2023-08-07T07:57:46;1.00;;;1.00;;
57899;SDS011;60605;53.716;19.940;2023-08-07T08:02:49;1.20;;;1.20;;
57899;SDS011;60605;53.716;19.940;2023-08-07T08:07:53;0.80;;;0.80;;
57899;SDS011;60605;53.716;19.940;2023-08-07T08:12:56;1.10;;;1.10;;
57899;SDS011;60605;53.716;19.940;2023-08-07T08:18:01;2.20;;;1.20;;
57899;SDS011;60605;53.716;19.940;2023-08-07T08:23:05;1.30;;;0.90;;
57899;SDS011;60605;53.716;19.940;2023-08-07T08:28:08;1.30;;;1.20;;
57899;SDS011;60605;53.716;19.940;2023-08-07T08:33:11;1.20;;;1.20;;
57899;SDS011;60605;53.716;19.940;2023-08-07T08:38:17;1.50;;;1.40;;
57899;SDS011;60605;53.716;19.940;2023-08-07T08:43:23;1.40;;;1.40;;
57899;SDS011;60605;53.716;19.940;2023-08-07T08:48:28;1.50;;;1.50;;
57899;SDS011;60605;53.716;19.940;2023-08-07T08:53:34;1.70;;;1.60;;
57899;SDS011;60605;53.716;19.940;2023-08-07T08:58:38;1.60;;;1.40;;
57899;SDS011;60605;53.716;19.940;2023-08-07T09:03:42;1.60;;;1.50;;
57899;SDS011;60605;53.716;19.940;2023-08-07T09:08:46;1.40;;;1.40;;
57899;SDS011;60605;53.716;19.940;2023-08-07T09:13:52;2.20;;;1.50;;
57899;SDS011;60605;53.716;19.940;2023-08-07T09:19:00;4.00;;;1.70;;
57899;SDS011;60605;53.716;19.940;2023-08-07T09:24:07;2.30;;;1.70;;
57899;SDS011;60605;53.716;19.940;2023-08-07T09:29:11;1.80;;;1.70;;
57899;SDS011;60605;53.716;19.940;2023-08-07T09:34:15;1.60;;;1.50;;
57899;SDS011;60605;53.716;19.940;2023-08-07T09:39:23;3.00;;;1.70;;
57899;SDS011;60605;53.716;19.940;2023-08-07T09:44:36;1.70;;;1.60;;
57899;SDS011;60605;53.716;19.940;2023-08-07T09:49:39;1.40;;;1.40;;
57899;SDS011;60605;53.716;19.940;2023-08-07T09:54:43;1.90;;;1.60;;
57899;SDS011;60605;53.716;19.940;2023-08-07T09:59:48;1.70;;;1.60;;
57899;SDS011;60605;53.716;19.940;2023-08-07T10:04:53;1.90;;;1.70;;
57899;SDS011;60605;53.716;19.940;2023-08-07T10:09:58;2.10;;;1.70;;
57899;SDS011;60605;53.716;19.940;2023-08-07T10:15:02;2.00;;;1.80;;
57899;SDS011;60605;53.716;19.940;2023-08-07T10:20:07;2.50;;;2.00;;
57899;SDS011;60605;53.716;19.940;2023-08-07T10:25:11;1.70;;;1.50;;
57899;SDS011;60605;53.716;19.940;2023-08-07T10:30:14;2.70;;;1.80;;
57899;SDS011;60605;53.716;19.940;2023-08-07T10:35:24;1.90;;;1.80;;
57899;SDS011;60605;53.716;19.940;2023-08-07T10:40:28;3.00;;;1.80;;
57899;SDS011;60605;53.716;19.940;2023-08-07T10:45:34;1.80;;;1.70;;
57899;SDS011;60605;53.716;19.940;2023-08-07T10:56:01;2.50;;;1.70;;
57899;SDS011;60605;53.716;19.940;2023-08-07T11:06:28;2.80;;;1.60;;
57899;SDS011;60605;53.716;19.940;2023-08-07T11:11:42;1.60;;;1.50;;
57899;SDS011;60605;53.716;19.940;2023-08-07T11:16:49;1.80;;;1.70;;
57899;SDS011;60605;53.716;19.940;2023-08-07T11:21:54;2.60;;;1.70;;
57899;SDS011;60605;53.716;19.940;2023-08-07T11:26:59;2.20;;;1.70;;
57899;SDS011;60605;53.716;19.940;2023-08-07T11:32:08;4.40;;;2.10;;
57899;SDS011;60605;53.716;19.940;2023-08-07T11:37:16;1.80;;;1.70;;
57899;SDS011;60605;53.716;19.940;2023-08-07T11:42:23;1.90;;;1.80;;
57899;SDS011;60605;53.716;19.940;2023-08-07T11:47:31;3.00;;;2.00;;
57899;SDS011;60605;53.716;19.940;2023-08-07T11:52:34;1.60;;;1.50;;
57899;SDS011;60605;53.716;19.940;2023-08-07T11:57:38;2.10;;;1.90;;
57899;SDS011;60605;53.716;19.940;2023-08-07T12:02:43;2.90;;;1.60;;
57899;SDS011;60605;53.716;19.940;2023-08-07T12:07:47;1.80;;;1.70;;
57899;SDS011;60605;53.716;19.940;2023-08-07T12:12:51;2.30;;;1.70;;
57899;SDS011;60605;53.716;19.940;2023-08-07T12:18:03;2.40;;;2.00;;
57899;SDS011;60605;53.716;19.940;2023-08-07T12:23:11;4.00;;;1.60;;
57899;SDS011;60605;53.716;19.940;2023-08-07T12:28:17;2.00;;;1.80;;
57899;SDS011;60605;53.716;19.940;2023-08-07T12:33:21;1.80;;;1.70;;
57899;SDS011;60605;53.716;19.940;2023-08-07T12:38:25;2.60;;;2.00;;
57899;SDS011;60605;53.716;19.940;2023-08-07T12:43:29;1.60;;;1.40;;
57899;SDS011;60605;53.716;19.940;2023-08-07T12:48:33;1.70;;;1.60;;
57899;SDS011;60605;53.716;19.940;2023-08-07T12:53:36;1.80;;;1.70;;
57899;SDS011;60605;53.716;19.940;2023-08-07T12:58:39;3.20;;;1.80;;
57899;SDS011;60605;53.716;19.940;2023-08-07T13:03:44;2.30;;;1.60;;
57899;SDS011;60605;53.716;19.940;2023-08-07T13:08:47;3.70;;;1.80;;
57899;SDS011;60605;53.716;19.940;2023-08-07T13:13:51;1.80;;;1.70;;
57899;SDS011;60605;53.716;19.940;2023-08-07T13:18:54;2.30;;;1.60;;
57899;SDS011;60605;53.716;19.940;2023-08-07T13:23:58;5.50;;;1.80;;
57899;SDS011;60605;53.716;19.940;2023-08-07T13:29:01;2.80;;;1.60;;
57899;SDS011;60605;53.716;19.940;2023-08-07T13:34:04;2.10;;;1.60;;
57899;SDS011;60605;53.716;19.940;2023-08-07T13:39:12;1.80;;;1.50;;
57899;SDS011;60605;53.716;19.940;2023-08-07T13:44:16;1.80;;;1.60;;
57899;SDS011;60605;53.716;19.940;2023-08-07T13:49:21;1.80;;;1.70;;
57899;SDS011;60605;53.716;19.940;2023-08-07T13:54:25;2.50;;;1.60;;
57899;SDS011;60605;53.716;19.940;2023-08-07T13:59:28;1.50;;;1.40;;
57899;SDS011;60605;53.716;19.940;2023-08-07T14:04:32;2.80;;;1.80;;
57899;SDS011;60605;53.716;19.940;2023-08-07T14:09:36;1.90;;;1.60;;
57899;SDS011;60605;53.716;19.940;2023-08-07T14:14:40;3.10;;;2.00;;
57899;SDS011;60605;53.716;19.940;2023-08-07T14:19:43;1.70;;;1.60;;
57899;SDS011;60605;53.716;19.940;2023-08-07T14:24:47;1.90;;;1.70;;
57899;SDS011;60605;53.716;19.940;2023-08-07T14:29:50;1.70;;;1.60;;
57899;SDS011;60605;53.716;19.940;2023-08-07T14:34:54;2.80;;;1.70;;
57899;SDS011;60605;53.716;19.940;2023-08-07T14:39:57;2.80;;;1.80;;
57899;SDS011;60605;53.716;19.940;2023-08-07T14:45:01;1.70;;;1.60;;
57899;SDS011;60605;53.716;19.940;2023-08-07T14:50:04;1.90;;;1.70;;
57899;SDS011;60605;53.716;19.940;2023-08-07T14:55:08;1.60;;;1.50;;
57899;SDS011;60605;53.716;19.940;2023-08-07T15:00:12;1.80;;;1.50;;
57899;SDS011;60605;53.716;19.940;2023-08-07T15:05:17;1.70;;;1.60;;
57899;SDS011;60605;53.716;19.940;2023-08-07T15:10:22;1.40;;;1.30;;
57899;SDS011;60605;53.716;19.940;2023-08-07T15:15:26;2.70;;;1.60;;
57899;SDS011;60605;53.716;19.940;2023-08-07T15:20:30;3.10;;;1.70;;
57899;SDS011;60605;53.716;19.940;2023-08-07T15:25:34;1.70;;;1.60;;
57899;SDS011;60605;53.716;19.940;2023-08-07T15:30:41;2.90;;;1.60;;
57899;SDS011;60605;53.716;19.940;2023-08-07T15:35:53;2.50;;;1.60;;
57899;SDS011;60605;53.716;19.940;2023-08-07T15:40:57;2.00;;;1.90;;
57899;SDS011;60605;53.716;19.940;2023-08-07T15:46:01;1.60;;;1.50;;
57899;SDS011;60605;53.716;19.940;2023-08-07T15:51:04;1.70;;;1.60;;
57899;SDS011;60605;53.716;19.940;2023-08-07T15:56:07;2.80;;;2.30;;
57899;SDS011;60605;53.716;19.940;2023-08-07T16:01:11;1.90;;;1.70;;
57899;SDS011;60605;53.716;19.940;2023-08-07T16:06:14;3.30;;;2.00;;
57899;SDS011;60605;53.716;19.940;2023-08-07T16:11:18;2.30;;;1.90;;
57899;SDS011;60605;53.716;19.940;2023-08-07T16:16:21;2.00;;;1.90;;
57899;SDS011;60605;53.716;19.940;2023-08-07T16:21:25;3.30;;;2.00;;
57899;SDS011;60605;53.716;19.940;2023-08-07T16:26:29;2.30;;;2.00;;
57899;SDS011;60605;53.716;19.940;2023-08-07T16:31:32;3.10;;;2.10;;
57899;SDS011;60605;53.716;19.940;2023-08-07T16:36:36;3.50;;;1.90;;
57899;SDS011;60605;53.716;19.940;2023-08-07T16:41:39;2.30;;;1.90;;
57899;SDS011;60605;53.716;19.940;2023-08-07T16:46:48;5.30;;;2.20;;
57899;SDS011;60605;53.716;19.940;2023-08-07T16:51:51;2.00;;;1.80;;
57899;SDS011;60605;53.716;19.940;2023-08-07T16:56:57;3.00;;;2.00;;
57899;SDS011;60605;53.716;19.940;2023-08-07T17:02:01;2.20;;;1.90;;
57899;SDS011;60605;53.716;19.940;2023-08-07T17:07:05;3.10;;;2.10;;
57899;SDS011;60605;53.716;19.940;2023-08-07T17:12:09;4.70;;;2.30;;
57899;SDS011;60605;53.716;19.940;2023-08-07T17:17:12;2.70;;;2.50;;
57899;SDS011;60605;53.716;19.940;2023-08-07T17:22:15;5.60;;;2.30;;
57899;SDS011;60605;53.716;19.940;2023-08-07T17:27:19;2.20;;;1.90;;
57899;SDS011;60605;53.716;19.940;2023-08-07T17:32:23;2.90;;;2.10;;
57899;SDS011;60605;53.716;19.940;2023-08-07T17:37:27;2.80;;;2.30;;
57899;SDS011;60605;53.716;19.940;2023-08-07T17:42:31;3.00;;;2.30;;
57899;SDS011;60605;53.716;19.940;2023-08-07T17:47:34;3.20;;;2.40;;
57899;SDS011;60605;53.716;19.940;2023-08-07T17:52:38;4.30;;;2.60;;
57899;SDS011;60605;53.716;19.940;2023-08-07T17:57:41;3.10;;;2.40;;
57899;SDS011;60605;53.716;19.940;2023-08-07T18:02:45;4.60;;;2.50;;
57899;SDS011;60605;53.716;19.940;2023-08-07T18:07:49;2.70;;;2.50;;
57899;SDS011;60605;53.716;19.940;2023-08-07T18:12:54;5.20;;;2.90;;
57899;SDS011;60605;53.716;19.940;2023-08-07T18:17:57;3.90;;;2.50;;
57899;SDS011;60605;53.716;19.940;2023-08-07T18:23:01;4.80;;;2.40;;
57899;SDS011;60605;53.716;19.940;2023-08-07T18:28:05;3.80;;;2.60;;
57899;SDS011;60605;53.716;19.940;2023-08-07T18:33:10;6.40;;;3.00;;
57899;SDS011;60605;53.716;19.940;2023-08-07T18:38:13;3.60;;;2.80;;
57899;SDS011;60605;53.716;19.940;2023-08-07T18:43:16;4.10;;;2.60;;
57899;SDS011;60605;53.716;19.940;2023-08-07T18:48:20;5.40;;;2.90;;
57899;SDS011;60605;53.716;19.940;2023-08-07T18:53:23;3.60;;;2.60;;
57899;SDS011;60605;53.716;19.940;2023-08-07T18:58:27;6.70;;;3.10;;
57899;SDS011;60605;53.716;19.940;2023-08-07T19:03:30;5.90;;;2.90;;
57899;SDS011;60605;53.716;19.940;2023-08-07T19:08:34;4.90;;;3.00;;
57899;SDS011;60605;53.716;19.940;2023-08-07T19:13:39;5.10;;;2.80;;
57899;SDS011;60605;53.716;19.940;2023-08-07T19:18:43;5.20;;;2.90;;
57899;SDS011;60605;53.716;19.940;2023-08-07T19:23:47;6.40;;;3.10;;
57899;SDS011;60605;53.716;19.940;2023-08-07T19:28:50;4.30;;;3.10;;
57899;SDS011;60605;53.716;19.940;2023-08-07T19:33:54;6.40;;;3.50;;
57899;SDS011;60605;53.716;19.940;2023-08-07T19:38:59;4.80;;;2.70;;
57899;SDS011;60605;53.716;19.940;2023-08-07T19:44:02;6.60;;;3.00;;
57899;SDS011;60605;53.716;19.940;2023-08-07T19:49:06;7.00;;;3.10;;
57899;SDS011;60605;53.716;19.940;2023-08-07T19:54:10;4.60;;;2.80;;
57899;SDS011;60605;53.716;19.940;2023-08-07T19:59:15;4.30;;;2.80;;
57899;SDS011;60605;53.716;19.940;2023-08-07T20:04:19;7.30;;;3.20;;
57899;SDS011;60605;53.716;19.940;2023-08-07T20:09:23;4.70;;;3.10;;
57899;SDS011;60605;53.716;19.940;2023-08-07T20:14:27;4.80;;;3.30;;
57899;SDS011;60605;53.716;19.940;2023-08-07T20:19:30;12.40;;;3.50;;
57899;SDS011;60605;53.716;19.940;2023-08-07T20:24:34;5.90;;;3.70;;
57899;SDS011;60605;53.716;19.940;2023-08-07T20:29:37;5.90;;;3.20;;
57899;SDS011;60605;53.716;19.940;2023-08-07T20:34:41;6.60;;;3.20;;
57899;SDS011;60605;53.716;19.940;2023-08-07T20:39:44;6.70;;;3.20;;
57899;SDS011;60605;53.716;19.940;2023-08-07T20:44:48;7.10;;;3.00;;
57899;SDS011;60605;53.716;19.940;2023-08-07T20:49:51;5.20;;;3.30;;
57899;SDS011;60605;53.716;19.940;2023-08-07T20:54:56;4.20;;;3.50;;
57899;SDS011;60605;53.716;19.940;2023-08-07T21:00:00;5.90;;;3.20;;
57899;SDS011;60605;53.716;19.940;2023-08-07T21:05:07;4.70;;;3.20;;
57899;SDS011;60605;53.716;19.940;2023-08-07T21:10:11;6.90;;;3.60;;
57899;SDS011;60605;53.716;19.940;2023-08-07T21:15:15;8.20;;;4.00;;
57899;SDS011;60605;53.716;19.940;2023-08-07T21:20:18;5.00;;;3.10;;
57899;SDS011;60605;53.716;19.940;2023-08-07T21:25:22;6.00;;;3.70;;
57899;SDS011;60605;53.716;19.940;2023-08-07T21:30:26;5.00;;;3.30;;
57899;SDS011;60605;53.716;19.940;2023-08-07T21:35:31;4.20;;;3.00;;
57899;SDS011;60605;53.716;19.940;2023-08-07T21:40:34;7.30;;;3.10;;
57899;SDS011;60605;53.716;19.940;2023-08-07T21:45:38;9.80;;;3.40;;
57899;SDS011;60605;53.716;19.940;2023-08-07T21:50:42;7.60;;;2.90;;
57899;SDS011;60605;53.716;19.940;2023-08-07T21:55:45;4.10;;;2.80;;
57899;SDS011;60605;53.716;19.940;2023-08-07T22:00:48;5.10;;;3.00;;
57899;SDS011;60605;53.716;19.940;2023-08-07T22:05:52;3.30;;;2.90;;
57899;SDS011;60605;53.716;19.940;2023-08-07T22:10:55;4.80;;;3.10;;
57899;SDS011;60605;53.716;19.940;2023-08-07T22:15:59;5.40;;;2.80;;
57899;SDS011;60605;53.716;19.940;2023-08-07T22:21:03;6.60;;;3.30;;
57899;SDS011;60605;53.716;19.940;2023-08-07T22:26:07;7.10;;;3.00;;
57899;SDS011;60605;53.716;19.940;2023-08-07T22:31:10;8.60;;;3.40;;
57899;SDS011;60605;53.716;19.940;2023-08-07T22:36:13;4.20;;;2.70;;
57899;SDS011;60605;53.716;19.940;2023-08-07T22:41:18;8.50;;;2.90;;
57899;SDS011;60605;53.716;19.940;2023-08-07T22:46:21;8.80;;;3.40;;
57899;SDS011;60605;53.716;19.940;2023-08-07T22:51:25;7.00;;;3.50;;
57899;SDS011;60605;53.716;19.940;2023-08-07T22:56:28;6.80;;;3.20;;
57899;SDS011;60605;53.716;19.940;2023-08-07T23:01:31;8.90;;;3.40;;
57899;SDS011;60605;53.716;19.940;2023-08-07T23:06:35;5.90;;;2.80;;
57899;SDS011;60605;53.716;19.940;2023-08-07T23:11:38;8.00;;;3.30;;
57899;SDS011;60605;53.716;19.940;2023-08-07T23:16:41;7.80;;;3.10;;
57899;SDS011;60605;53.716;19.940;2023-08-07T23:21:46;9.20;;;3.10;;
57899;SDS011;60605;53.716;19.940;2023-08-07T23:26:49;6.00;;;2.90;;
57899;SDS011;60605;53.716;19.940;2023-08-07T23:31:52;9.30;;;2.90;;
57899;SDS011;60605;53.716;19.940;2023-08-07T23:36:55;7.40;;;3.40;;
57899;SDS011;60605;53.716;19.940;2023-08-07T23:47:03;6.90;;;3.00;;
57899;SDS011;60605;53.716;19.940;2023-08-07T23:52:07;6.60;;;3.30;;
57899;SDS011;60605;53.716;19.940;2023-08-07T23:57:10;10.40;;;3.10;;
